sensor_id;sensor_type;location;lat;lon;timestamp;P1;durP1;ratioP1;P2;durP2;ratioP2
29092;SDS011;16167;48.768;14.984;2023-12-28T00:01:36;16.60;;;10.90;;
29092;SDS011;16167;48.768;14.984;2023-12-28T00:04:04;34.57;;;13.00;;
29092;SDS011;16167;48.768;14.984;2023-12-28T00:06:33;15.75;;;10.13;;
29092;SDS011;16167;48.768;14.984;2023-12-28T00:09:01;20.27;;;10.53;;
29092;SDS011;16167;48.768;14.984;2023-12-28T00:11:39;18.77;;;10.73;;
29092;SDS011;16167;48.768;14.984;2023-12-28T00:14:07;18.80;;;10.98;;
29092;SDS011;16167;48.768;14.984;2023-12-28T00:16:35;21.23;;;10.52;;
29092;SDS011;16167;48.768;14.984;2023-12-28T00:19:04;12.52;;;7.53;;
29092;SDS011;16167;48.768;14.984;2023-12-28T00:21:33;22.80;;;11.10;;
29092;SDS011;16167;48.768;14.984;2023-12-28T00:24:02;18.83;;;10.13;;
29092;SDS011;16167;48.768;14.984;2023-12-28T00:26:30;21.13;;;10.20;;
29092;SDS011;16167;48.768;14.984;2023-12-28T00:29:00;18.52;;;10.15;;
29092;SDS011;16167;48.768;14.984;2023-12-28T00:31:28;19.15;;;10.70;;
29092;SDS011;16167;48.768;14.984;2023-12-28T00:33:57;17.80;;;10.07;;
29092;SDS011;16167;48.768;14.984;2023-12-28T00:36:25;19.08;;;10.93;;
29092;SDS011;16167;48.768;14.984;2023-12-28T00:38:54;16.13;;;7.80;;
29092;SDS011;16167;48.768;14.984;2023-12-28T00:41:22;19.90;;;9.57;;
29092;SDS011;16167;48.768;14.984;2023-12-28T00:43:51;16.60;;;10.15;;
29092;SDS011;16167;48.768;14.984;2023-12-28T00:46:21;13.75;;;7.68;;
29092;SDS011;16167;48.768;14.984;2023-12-28T00:48:49;14.27;;;8.70;;
29092;SDS011;16167;48.768;14.984;2023-12-28T00:51:18;18.05;;;10.65;;
29092;SDS011;16167;48.768;14.984;2023-12-28T00:53:47;19.05;;;11.43;;
29092;SDS011;16167;48.768;14.984;2023-12-28T00:56:16;19.05;;;12.25;;
29092;SDS011;16167;48.768;14.984;2023-12-28T00:58:48;22.52;;;12.43;;
29092;SDS011;16167;48.768;14.984;2023-12-28T01:01:16;23.45;;;12.05;;
29092;SDS011;16167;48.768;14.984;2023-12-28T01:03:46;14.77;;;9.30;;
29092;SDS011;16167;48.768;14.984;2023-12-28T01:06:14;23.23;;;13.13;;
29092;SDS011;16167;48.768;14.984;2023-12-28T01:08:43;28.40;;;15.13;;
29092;SDS011;16167;48.768;14.984;2023-12-28T01:11:11;20.23;;;12.60;;
29092;SDS011;16167;48.768;14.984;2023-12-28T01:13:40;24.00;;;12.43;;
29092;SDS011;16167;48.768;14.984;2023-12-28T01:16:08;23.10;;;12.52;;
29092;SDS011;16167;48.768;14.984;2023-12-28T01:18:37;21.27;;;12.20;;
29092;SDS011;16167;48.768;14.984;2023-12-28T01:21:06;25.70;;;12.63;;
29092;SDS011;16167;48.768;14.984;2023-12-28T01:23:35;26.48;;;13.57;;
29092;SDS011;16167;48.768;14.984;2023-12-28T01:26:04;20.30;;;9.82;;
29092;SDS011;16167;48.768;14.984;2023-12-28T01:28:32;24.35;;;12.70;;
29092;SDS011;16167;48.768;14.984;2023-12-28T01:31:00;22.83;;;12.45;;
29092;SDS011;16167;48.768;14.984;2023-12-28T01:33:29;24.45;;;12.50;;
29092;SDS011;16167;48.768;14.984;2023-12-28T01:35:57;22.00;;;11.70;;
29092;SDS011;16167;48.768;14.984;2023-12-28T01:38:27;20.92;;;12.10;;
29092;SDS011;16167;48.768;14.984;2023-12-28T01:40:55;20.05;;;11.95;;
29092;SDS011;16167;48.768;14.984;2023-12-28T01:43:24;16.00;;;9.35;;
29092;SDS011;16167;48.768;14.984;2023-12-28T01:45:52;21.92;;;11.73;;
29092;SDS011;16167;48.768;14.984;2023-12-28T01:48:21;19.10;;;12.20;;
29092;SDS011;16167;48.768;14.984;2023-12-28T01:50:49;17.60;;;10.95;;
29092;SDS011;16167;48.768;14.984;2023-12-28T01:53:18;18.02;;;10.75;;
29092;SDS011;16167;48.768;14.984;2023-12-28T01:55:47;24.17;;;11.00;;
29092;SDS011;16167;48.768;14.984;2023-12-28T01:58:16;22.42;;;12.10;;
29092;SDS011;16167;48.768;14.984;2023-12-28T02:00:45;19.23;;;11.30;;
29092;SDS011;16167;48.768;14.984;2023-12-28T02:03:14;21.17;;;12.20;;
29092;SDS011;16167;48.768;14.984;2023-12-28T02:05:44;19.42;;;12.00;;
29092;SDS011;16167;48.768;14.984;2023-12-28T02:08:14;19.88;;;13.15;;
29092;SDS011;16167;48.768;14.984;2023-12-28T02:10:43;20.42;;;12.43;;
29092;SDS011;16167;48.768;14.984;2023-12-28T02:13:13;19.05;;;10.95;;
29092;SDS011;16167;48.768;14.984;2023-12-28T02:15:42;20.25;;;12.15;;
29092;SDS011;16167;48.768;14.984;2023-12-28T02:18:16;27.77;;;12.07;;
29092;SDS011;16167;48.768;14.984;2023-12-28T02:20:48;22.40;;;11.32;;
29092;SDS011;16167;48.768;14.984;2023-12-28T02:23:17;19.40;;;12.40;;
29092;SDS011;16167;48.768;14.984;2023-12-28T02:25:47;23.27;;;11.95;;
29092;SDS011;16167;48.768;14.984;2023-12-28T02:28:15;19.60;;;11.68;;
29092;SDS011;16167;48.768;14.984;2023-12-28T02:30:43;18.23;;;11.80;;
29092;SDS011;16167;48.768;14.984;2023-12-28T02:33:12;21.27;;;11.55;;
29092;SDS011;16167;48.768;14.984;2023-12-28T02:35:48;17.13;;;10.40;;
29092;SDS011;16167;48.768;14.984;2023-12-28T02:38:23;19.70;;;10.52;;
29092;SDS011;16167;48.768;14.984;2023-12-28T02:40:54;19.63;;;10.63;;
29092;SDS011;16167;48.768;14.984;2023-12-28T02:43:22;15.85;;;10.63;;
29092;SDS011;16167;48.768;14.984;2023-12-28T02:45:51;20.75;;;11.32;;
29092;SDS011;16167;48.768;14.984;2023-12-28T02:48:19;20.42;;;11.88;;
29092;SDS011;16167;48.768;14.984;2023-12-28T02:50:48;13.77;;;9.75;;
29092;SDS011;16167;48.768;14.984;2023-12-28T02:53:16;23.45;;;12.32;;
29092;SDS011;16167;48.768;14.984;2023-12-28T02:55:44;19.83;;;12.27;;
29092;SDS011;16167;48.768;14.984;2023-12-28T02:58:14;24.77;;;13.27;;
29092;SDS011;16167;48.768;14.984;2023-12-28T03:00:42;22.83;;;12.32;;
29092;SDS011;16167;48.768;14.984;2023-12-28T03:03:10;21.27;;;12.68;;
29092;SDS011;16167;48.768;14.984;2023-12-28T03:05:39;21.73;;;11.27;;
29092;SDS011;16167;48.768;14.984;2023-12-28T03:08:07;13.23;;;8.63;;
29092;SDS011;16167;48.768;14.984;2023-12-28T03:10:36;19.35;;;11.27;;
29092;SDS011;16167;48.768;14.984;2023-12-28T03:13:04;19.73;;;11.73;;
29092;SDS011;16167;48.768;14.984;2023-12-28T03:15:34;21.83;;;12.52;;
29092;SDS011;16167;48.768;14.984;2023-12-28T03:18:02;24.27;;;13.20;;
29092;SDS011;16167;48.768;14.984;2023-12-28T03:20:31;25.15;;;13.60;;
29092;SDS011;16167;48.768;14.984;2023-12-28T03:22:59;22.60;;;11.65;;
29092;SDS011;16167;48.768;14.984;2023-12-28T03:25:27;21.20;;;13.15;;
29092;SDS011;16167;48.768;14.984;2023-12-28T03:27:56;20.88;;;11.88;;
29092;SDS011;16167;48.768;14.984;2023-12-28T03:30:24;21.85;;;11.80;;
29092;SDS011;16167;48.768;14.984;2023-12-28T03:32:54;23.13;;;13.85;;
29092;SDS011;16167;48.768;14.984;2023-12-28T03:35:23;19.95;;;11.30;;
29092;SDS011;16167;48.768;14.984;2023-12-28T03:37:51;18.77;;;12.30;;
29092;SDS011;16167;48.768;14.984;2023-12-28T03:40:19;23.38;;;13.63;;
29092;SDS011;16167;48.768;14.984;2023-12-28T03:42:47;19.70;;;12.07;;
29092;SDS011;16167;48.768;14.984;2023-12-28T03:45:16;20.50;;;11.55;;
29092;SDS011;16167;48.768;14.984;2023-12-28T03:47:44;21.52;;;12.45;;
29092;SDS011;16167;48.768;14.984;2023-12-28T03:50:14;25.67;;;14.13;;
29092;SDS011;16167;48.768;14.984;2023-12-28T03:52:42;20.08;;;13.05;;
29092;SDS011;16167;48.768;14.984;2023-12-28T03:55:10;22.55;;;13.13;;
29092;SDS011;16167;48.768;14.984;2023-12-28T03:57:39;25.50;;;13.52;;
29092;SDS011;16167;48.768;14.984;2023-12-28T04:00:09;26.00;;;13.50;;
29092;SDS011;16167;48.768;14.984;2023-12-28T04:02:38;23.05;;;14.07;;
29092;SDS011;16167;48.768;14.984;2023-12-28T04:05:07;23.75;;;14.13;;
29092;SDS011;16167;48.768;14.984;2023-12-28T04:07:37;31.63;;;15.15;;
29092;SDS011;16167;48.768;14.984;2023-12-28T04:10:05;28.95;;;14.52;;
29092;SDS011;16167;48.768;14.984;2023-12-28T04:12:34;29.48;;;15.02;;
29092;SDS011;16167;48.768;14.984;2023-12-28T04:15:04;30.58;;;14.02;;
29092;SDS011;16167;48.768;14.984;2023-12-28T04:17:32;25.60;;;14.05;;
29092;SDS011;16167;48.768;14.984;2023-12-28T04:20:01;26.47;;;14.47;;
29092;SDS011;16167;48.768;14.984;2023-12-28T04:25:00;27.20;;;13.40;;
29092;SDS011;16167;48.768;14.984;2023-12-28T04:27:28;26.30;;;14.00;;
29092;SDS011;16167;48.768;14.984;2023-12-28T04:29:56;23.80;;;13.88;;
29092;SDS011;16167;48.768;14.984;2023-12-28T04:32:25;27.00;;;14.63;;
29092;SDS011;16167;48.768;14.984;2023-12-28T04:34:53;20.47;;;11.10;;
29092;SDS011;16167;48.768;14.984;2023-12-28T04:37:21;28.33;;;14.77;;
29092;SDS011;16167;48.768;14.984;2023-12-28T04:39:50;26.48;;;15.02;;
29092;SDS011;16167;48.768;14.984;2023-12-28T04:42:20;18.20;;;12.23;;
29092;SDS011;16167;48.768;14.984;2023-12-28T04:44:49;25.20;;;12.75;;
29092;SDS011;16167;48.768;14.984;2023-12-28T04:47:17;22.20;;;12.73;;
29092;SDS011;16167;48.768;14.984;2023-12-28T04:49:45;23.25;;;12.25;;
29092;SDS011;16167;48.768;14.984;2023-12-28T04:52:14;23.27;;;13.68;;
29092;SDS011;16167;48.768;14.984;2023-12-28T04:54:42;29.15;;;16.77;;
29092;SDS011;16167;48.768;14.984;2023-12-28T04:57:10;26.77;;;14.20;;
29092;SDS011;16167;48.768;14.984;2023-12-28T04:59:40;30.25;;;15.63;;
29092;SDS011;16167;48.768;14.984;2023-12-28T05:02:09;23.73;;;13.48;;
29092;SDS011;16167;48.768;14.984;2023-12-28T05:04:37;24.40;;;13.80;;
29092;SDS011;16167;48.768;14.984;2023-12-28T05:07:06;17.02;;;10.10;;
29092;SDS011;16167;48.768;14.984;2023-12-28T05:09:34;21.20;;;11.82;;
29092;SDS011;16167;48.768;14.984;2023-12-28T05:12:03;25.30;;;14.23;;
29092;SDS011;16167;48.768;14.984;2023-12-28T05:14:32;27.25;;;13.48;;
29092;SDS011;16167;48.768;14.984;2023-12-28T05:17:02;53.47;;;22.52;;
29092;SDS011;16167;48.768;14.984;2023-12-28T05:19:30;37.72;;;18.52;;
29092;SDS011;16167;48.768;14.984;2023-12-28T05:21:58;20.35;;;10.55;;
29092;SDS011;16167;48.768;14.984;2023-12-28T05:24:29;17.02;;;8.88;;
29092;SDS011;16167;48.768;14.984;2023-12-28T05:26:57;17.33;;;9.20;;
29092;SDS011;16167;48.768;14.984;2023-12-28T05:29:26;17.52;;;9.88;;
29092;SDS011;16167;48.768;14.984;2023-12-28T05:31:54;15.88;;;9.63;;
29092;SDS011;16167;48.768;14.984;2023-12-28T05:34:23;18.20;;;11.10;;
29092;SDS011;16167;48.768;14.984;2023-12-28T05:36:52;19.45;;;10.18;;
29092;SDS011;16167;48.768;14.984;2023-12-28T05:39:20;16.60;;;11.73;;
29092;SDS011;16167;48.768;14.984;2023-12-28T05:41:49;24.05;;;13.35;;
29092;SDS011;16167;48.768;14.984;2023-12-28T05:44:17;24.10;;;12.10;;
29092;SDS011;16167;48.768;14.984;2023-12-28T05:46:45;19.90;;;10.80;;
29092;SDS011;16167;48.768;14.984;2023-12-28T05:49:14;18.10;;;10.57;;
29092;SDS011;16167;48.768;14.984;2023-12-28T05:51:44;22.15;;;10.95;;
29092;SDS011;16167;48.768;14.984;2023-12-28T05:54:12;16.88;;;10.48;;
29092;SDS011;16167;48.768;14.984;2023-12-28T05:56:40;33.70;;;17.75;;
29092;SDS011;16167;48.768;14.984;2023-12-28T05:59:08;43.58;;;21.98;;
29092;SDS011;16167;48.768;14.984;2023-12-28T06:01:43;32.50;;;16.08;;
29092;SDS011;16167;48.768;14.984;2023-12-28T06:04:11;22.40;;;12.38;;
29092;SDS011;16167;48.768;14.984;2023-12-28T06:06:40;17.65;;;9.45;;
29092;SDS011;16167;48.768;14.984;2023-12-28T06:09:10;12.15;;;6.90;;
29092;SDS011;16167;48.768;14.984;2023-12-28T06:11:38;15.30;;;7.05;;
29092;SDS011;16167;48.768;14.984;2023-12-28T06:14:06;17.83;;;8.18;;
29092;SDS011;16167;48.768;14.984;2023-12-28T06:16:35;13.75;;;7.95;;
29092;SDS011;16167;48.768;14.984;2023-12-28T06:19:03;19.35;;;10.63;;
29092;SDS011;16167;48.768;14.984;2023-12-28T06:21:32;20.88;;;10.48;;
29092;SDS011;16167;48.768;14.984;2023-12-28T06:24:01;16.42;;;9.55;;
29092;SDS011;16167;48.768;14.984;2023-12-28T06:26:31;16.10;;;8.25;;
29092;SDS011;16167;48.768;14.984;2023-12-28T06:28:59;25.15;;;12.88;;
29092;SDS011;16167;48.768;14.984;2023-12-28T06:31:27;22.02;;;13.07;;
29092;SDS011;16167;48.768;14.984;2023-12-28T06:33:56;22.08;;;13.18;;
29092;SDS011;16167;48.768;14.984;2023-12-28T06:36:24;22.23;;;13.13;;
29092;SDS011;16167;48.768;14.984;2023-12-28T06:38:53;21.45;;;13.43;;
29092;SDS011;16167;48.768;14.984;2023-12-28T06:41:21;20.33;;;12.40;;
29092;SDS011;16167;48.768;14.984;2023-12-28T06:43:51;24.02;;;13.25;;
29092;SDS011;16167;48.768;14.984;2023-12-28T06:46:20;17.00;;;11.10;;
29092;SDS011;16167;48.768;14.984;2023-12-28T06:48:49;15.65;;;9.35;;
29092;SDS011;16167;48.768;14.984;2023-12-28T06:51:18;15.65;;;9.52;;
29092;SDS011;16167;48.768;14.984;2023-12-28T06:53:47;28.45;;;14.05;;
29092;SDS011;16167;48.768;14.984;2023-12-28T06:56:16;27.52;;;14.82;;
29092;SDS011;16167;48.768;14.984;2023-12-28T06:58:45;22.00;;;11.23;;
29092;SDS011;16167;48.768;14.984;2023-12-28T07:01:15;24.70;;;14.43;;
29092;SDS011;16167;48.768;14.984;2023-12-28T07:03:43;25.60;;;13.50;;
29092;SDS011;16167;48.768;14.984;2023-12-28T07:06:13;25.88;;;13.05;;
29092;SDS011;16167;48.768;14.984;2023-12-28T07:08:41;23.85;;;13.68;;
29092;SDS011;16167;48.768;14.984;2023-12-28T07:11:10;24.17;;;13.02;;
29092;SDS011;16167;48.768;14.984;2023-12-28T07:13:38;23.58;;;11.57;;
29092;SDS011;16167;48.768;14.984;2023-12-28T07:16:06;29.38;;;14.57;;
29092;SDS011;16167;48.768;14.984;2023-12-28T07:18:37;21.27;;;13.20;;
29092;SDS011;16167;48.768;14.984;2023-12-28T07:21:05;20.25;;;11.60;;
29092;SDS011;16167;48.768;14.984;2023-12-28T07:23:36;20.90;;;10.82;;
29092;SDS011;16167;48.768;14.984;2023-12-28T07:26:04;12.87;;;6.90;;
29092;SDS011;16167;48.768;14.984;2023-12-28T07:28:33;13.80;;;8.45;;
29092;SDS011;16167;48.768;14.984;2023-12-28T07:31:01;13.88;;;8.80;;
29092;SDS011;16167;48.768;14.984;2023-12-28T07:33:29;15.35;;;7.93;;
29092;SDS011;16167;48.768;14.984;2023-12-28T07:35:59;9.30;;;5.63;;
29092;SDS011;16167;48.768;14.984;2023-12-28T07:38:29;11.25;;;5.70;;
29092;SDS011;16167;48.768;14.984;2023-12-28T07:40:57;17.10;;;7.88;;
29092;SDS011;16167;48.768;14.984;2023-12-28T07:43:25;38.40;;;12.85;;
29092;SDS011;16167;48.768;14.984;2023-12-28T07:45:54;37.30;;;12.35;;
29092;SDS011;16167;48.768;14.984;2023-12-28T07:48:23;17.02;;;8.23;;
29092;SDS011;16167;48.768;14.984;2023-12-28T07:50:51;12.38;;;7.07;;
29092;SDS011;16167;48.768;14.984;2023-12-28T07:53:21;8.55;;;5.22;;
29092;SDS011;16167;48.768;14.984;2023-12-28T07:55:49;9.52;;;4.70;;
29092;SDS011;16167;48.768;14.984;2023-12-28T07:58:18;9.50;;;4.10;;
29092;SDS011;16167;48.768;14.984;2023-12-28T08:00:46;7.13;;;4.60;;
29092;SDS011;16167;48.768;14.984;2023-12-28T08:03:15;6.32;;;3.72;;
29092;SDS011;16167;48.768;14.984;2023-12-28T08:05:44;7.65;;;3.08;;
29092;SDS011;16167;48.768;14.984;2023-12-28T08:08:13;8.43;;;4.20;;
29092;SDS011;16167;48.768;14.984;2023-12-28T08:10:42;9.95;;;5.35;;
29092;SDS011;16167;48.768;14.984;2023-12-28T08:15:39;7.07;;;4.20;;
29092;SDS011;16167;48.768;14.984;2023-12-28T08:18:07;5.97;;;4.15;;
29092;SDS011;16167;48.768;14.984;2023-12-28T08:20:35;6.47;;;3.83;;
29092;SDS011;16167;48.768;14.984;2023-12-28T08:23:04;10.23;;;6.47;;
29092;SDS011;16167;48.768;14.984;2023-12-28T08:28:13;7.55;;;5.50;;
29092;SDS011;16167;48.768;14.984;2023-12-28T08:30:41;10.68;;;8.07;;
29092;SDS011;16167;48.768;14.984;2023-12-28T08:33:09;10.70;;;6.80;;
29092;SDS011;16167;48.768;14.984;2023-12-28T08:35:38;5.30;;;3.75;;
29092;SDS011;16167;48.768;14.984;2023-12-28T08:38:06;6.85;;;3.97;;
29092;SDS011;16167;48.768;14.984;2023-12-28T08:40:35;3.13;;;2.57;;
29092;SDS011;16167;48.768;14.984;2023-12-28T08:43:05;3.40;;;2.70;;
29092;SDS011;16167;48.768;14.984;2023-12-28T08:45:33;2.92;;;2.45;;
29092;SDS011;16167;48.768;14.984;2023-12-28T08:48:02;4.65;;;2.72;;
29092;SDS011;16167;48.768;14.984;2023-12-28T08:50:31;6.72;;;3.25;;
29092;SDS011;16167;48.768;14.984;2023-12-28T08:53:00;5.22;;;3.25;;
29092;SDS011;16167;48.768;14.984;2023-12-28T08:55:28;4.72;;;3.17;;
29092;SDS011;16167;48.768;14.984;2023-12-28T08:57:57;6.78;;;4.00;;
29092;SDS011;16167;48.768;14.984;2023-12-28T09:00:27;4.53;;;2.83;;
29092;SDS011;16167;48.768;14.984;2023-12-28T09:02:56;4.75;;;3.15;;
29092;SDS011;16167;48.768;14.984;2023-12-28T09:05:24;6.20;;;3.40;;
29092;SDS011;16167;48.768;14.984;2023-12-28T09:31:23;4.13;;;2.88;;
29092;SDS011;16167;48.768;14.984;2023-12-28T09:33:52;4.57;;;3.50;;
29092;SDS011;16167;48.768;14.984;2023-12-28T09:36:20;4.20;;;2.78;;
29092;SDS011;16167;48.768;14.984;2023-12-28T09:38:49;6.63;;;4.10;;
29092;SDS011;16167;48.768;14.984;2023-12-28T09:41:18;5.40;;;4.03;;
29092;SDS011;16167;48.768;14.984;2023-12-28T09:43:53;4.82;;;3.38;;
29092;SDS011;16167;48.768;14.984;2023-12-28T09:46:27;10.63;;;5.43;;
29092;SDS011;16167;48.768;14.984;2023-12-28T09:48:56;22.63;;;12.23;;
29092;SDS011;16167;48.768;14.984;2023-12-28T09:53:54;9.18;;;4.93;;
29092;SDS011;16167;48.768;14.984;2023-12-28T09:56:23;12.40;;;6.88;;
29092;SDS011;16167;48.768;14.984;2023-12-28T09:58:56;7.72;;;4.68;;
29092;SDS011;16167;48.768;14.984;2023-12-28T10:01:25;5.95;;;4.00;;
29092;SDS011;16167;48.768;14.984;2023-12-28T10:03:55;5.07;;;3.60;;
29092;SDS011;16167;48.768;14.984;2023-12-28T10:06:24;4.88;;;3.17;;
29092;SDS011;16167;48.768;14.984;2023-12-28T10:08:52;4.00;;;2.72;;
29092;SDS011;16167;48.768;14.984;2023-12-28T10:11:22;5.28;;;3.85;;
29092;SDS011;16167;48.768;14.984;2023-12-28T10:13:52;4.63;;;2.53;;
29092;SDS011;16167;48.768;14.984;2023-12-28T10:16:21;2.50;;;2.30;;
29092;SDS011;16167;48.768;14.984;2023-12-28T10:18:51;2.78;;;2.17;;
29092;SDS011;16167;48.768;14.984;2023-12-28T10:21:19;3.50;;;2.15;;
29092;SDS011;16167;48.768;14.984;2023-12-28T10:23:48;3.00;;;2.10;;
29092;SDS011;16167;48.768;14.984;2023-12-28T10:26:17;5.65;;;3.20;;
29092;SDS011;16167;48.768;14.984;2023-12-28T10:31:14;3.10;;;2.40;;
29092;SDS011;16167;48.768;14.984;2023-12-28T10:33:43;2.78;;;1.65;;
29092;SDS011;16167;48.768;14.984;2023-12-28T10:36:14;3.70;;;2.17;;
29092;SDS011;16167;48.768;14.984;2023-12-28T10:38:43;2.53;;;2.10;;
29092;SDS011;16167;48.768;14.984;2023-12-28T10:41:15;4.25;;;2.17;;
29092;SDS011;16167;48.768;14.984;2023-12-28T10:43:46;2.70;;;2.30;;
29092;SDS011;16167;48.768;14.984;2023-12-28T10:46:35;2.00;;;1.70;;
29092;SDS011;16167;48.768;14.984;2023-12-28T10:49:10;2.55;;;2.35;;
29092;SDS011;16167;48.768;14.984;2023-12-28T10:51:42;3.30;;;3.03;;
29092;SDS011;16167;48.768;14.984;2023-12-28T10:54:16;4.07;;;3.13;;
29092;SDS011;16167;48.768;14.984;2023-12-28T10:56:53;3.92;;;2.90;;
29092;SDS011;16167;48.768;14.984;2023-12-28T10:59:30;8.68;;;4.60;;
29092;SDS011;16167;48.768;14.984;2023-12-28T11:02:08;5.00;;;3.50;;
29092;SDS011;16167;48.768;14.984;2023-12-28T11:04:40;3.63;;;2.05;;
29092;SDS011;16167;48.768;14.984;2023-12-28T11:07:13;1.90;;;1.77;;
29092;SDS011;16167;48.768;14.984;2023-12-28T11:09:42;1.50;;;1.40;;
29092;SDS011;16167;48.768;14.984;2023-12-28T11:12:12;1.48;;;1.38;;
29092;SDS011;16167;48.768;14.984;2023-12-28T11:14:45;1.77;;;1.67;;
29092;SDS011;16167;48.768;14.984;2023-12-28T11:17:14;1.48;;;1.38;;
29092;SDS011;16167;48.768;14.984;2023-12-28T11:19:44;2.10;;;1.88;;
29092;SDS011;16167;48.768;14.984;2023-12-28T11:22:15;1.80;;;1.70;;
29092;SDS011;16167;48.768;14.984;2023-12-28T11:24:43;4.03;;;1.80;;
29092;SDS011;16167;48.768;14.984;2023-12-28T11:27:12;2.40;;;1.50;;
29092;SDS011;16167;48.768;14.984;2023-12-28T11:29:41;1.75;;;1.55;;
29092;SDS011;16167;48.768;14.984;2023-12-28T11:32:10;1.60;;;1.50;;
29092;SDS011;16167;48.768;14.984;2023-12-28T11:34:39;2.10;;;1.70;;
29092;SDS011;16167;48.768;14.984;2023-12-28T11:37:08;1.73;;;1.63;;
29092;SDS011;16167;48.768;14.984;2023-12-28T11:39:46;1.45;;;1.30;;
29092;SDS011;16167;48.768;14.984;2023-12-28T11:42:19;2.67;;;1.60;;
29092;SDS011;16167;48.768;14.984;2023-12-28T11:44:53;1.50;;;1.40;;
29092;SDS011;16167;48.768;14.984;2023-12-28T11:47:22;2.13;;;1.60;;
29092;SDS011;16167;48.768;14.984;2023-12-28T11:49:51;3.40;;;1.60;;
29092;SDS011;16167;48.768;14.984;2023-12-28T11:52:24;1.65;;;1.30;;
29092;SDS011;16167;48.768;14.984;2023-12-28T11:54:55;1.30;;;1.20;;
29092;SDS011;16167;48.768;14.984;2023-12-28T11:57:26;1.67;;;1.30;;
29092;SDS011;16167;48.768;14.984;2023-12-28T11:59:56;1.45;;;1.35;;
29092;SDS011;16167;48.768;14.984;2023-12-28T12:02:26;1.40;;;1.30;;
29092;SDS011;16167;48.768;14.984;2023-12-28T12:04:54;0.95;;;0.95;;
29092;SDS011;16167;48.768;14.984;2023-12-28T12:07:24;1.30;;;1.17;;
29092;SDS011;16167;48.768;14.984;2023-12-28T12:12:26;1.80;;;1.70;;
29092;SDS011;16167;48.768;14.984;2023-12-28T12:14:54;1.33;;;1.10;;
29092;SDS011;16167;48.768;14.984;2023-12-28T12:17:23;1.45;;;1.35;;
29092;SDS011;16167;48.768;14.984;2023-12-28T12:22:22;1.20;;;1.10;;
29092;SDS011;16167;48.768;14.984;2023-12-28T12:24:54;2.40;;;1.13;;
29092;SDS011;16167;48.768;14.984;2023-12-28T12:27:28;5.88;;;3.78;;
29092;SDS011;16167;48.768;14.984;2023-12-28T12:29:56;5.47;;;2.80;;
29092;SDS011;16167;48.768;14.984;2023-12-28T12:32:24;2.37;;;1.70;;
29092;SDS011;16167;48.768;14.984;2023-12-28T12:34:54;3.97;;;2.03;;
29092;SDS011;16167;48.768;14.984;2023-12-28T12:37:23;1.65;;;1.42;;
29092;SDS011;16167;48.768;14.984;2023-12-28T12:42:23;2.05;;;1.50;;
29092;SDS011;16167;48.768;14.984;2023-12-28T12:44:52;6.05;;;3.13;;
29092;SDS011;16167;48.768;14.984;2023-12-28T12:47:20;2.37;;;1.97;;
29092;SDS011;16167;48.768;14.984;2023-12-28T12:49:51;3.75;;;2.60;;
29092;SDS011;16167;48.768;14.984;2023-12-28T12:54:52;1.75;;;1.50;;
29092;SDS011;16167;48.768;14.984;2023-12-28T12:57:23;3.67;;;1.80;;
29092;SDS011;16167;48.768;14.984;2023-12-28T12:59:52;2.17;;;1.40;;
29092;SDS011;16167;48.768;14.984;2023-12-28T13:02:22;2.95;;;1.42;;
29092;SDS011;16167;48.768;14.984;2023-12-28T13:04:51;2.30;;;1.40;;
29092;SDS011;16167;48.768;14.984;2023-12-28T13:07:20;2.15;;;1.38;;
29092;SDS011;16167;48.768;14.984;2023-12-28T13:09:49;1.30;;;1.20;;
29092;SDS011;16167;48.768;14.984;2023-12-28T13:12:17;1.52;;;1.42;;
29092;SDS011;16167;48.768;14.984;2023-12-28T13:14:48;2.03;;;1.30;;
29092;SDS011;16167;48.768;14.984;2023-12-28T13:17:31;2.15;;;1.50;;
29092;SDS011;16167;48.768;14.984;2023-12-28T13:20:01;5.95;;;2.83;;
29092;SDS011;16167;48.768;14.984;2023-12-28T13:22:32;6.90;;;3.50;;
29092;SDS011;16167;48.768;14.984;2023-12-28T13:25:00;4.50;;;2.13;;
29092;SDS011;16167;48.768;14.984;2023-12-28T13:30:00;3.40;;;1.53;;
29092;SDS011;16167;48.768;14.984;2023-12-28T13:32:30;3.10;;;1.50;;
29092;SDS011;16167;48.768;14.984;2023-12-28T13:34:58;2.67;;;1.70;;
29092;SDS011;16167;48.768;14.984;2023-12-28T13:37:29;2.22;;;1.60;;
29092;SDS011;16167;48.768;14.984;2023-12-28T13:39:58;4.73;;;2.60;;
29092;SDS011;16167;48.768;14.984;2023-12-28T13:42:26;4.53;;;2.22;;
29092;SDS011;16167;48.768;14.984;2023-12-28T13:44:55;2.20;;;1.50;;
29092;SDS011;16167;48.768;14.984;2023-12-28T13:47:25;2.85;;;1.80;;
29092;SDS011;16167;48.768;14.984;2023-12-28T13:49:53;2.75;;;1.73;;
29092;SDS011;16167;48.768;14.984;2023-12-28T13:52:22;2.70;;;2.08;;
29092;SDS011;16167;48.768;14.984;2023-12-28T13:54:50;2.40;;;2.03;;
29092;SDS011;16167;48.768;14.984;2023-12-28T13:57:19;3.58;;;1.95;;
29092;SDS011;16167;48.768;14.984;2023-12-28T13:59:47;4.53;;;2.33;;
29092;SDS011;16167;48.768;14.984;2023-12-28T14:02:16;2.72;;;1.88;;
29092;SDS011;16167;48.768;14.984;2023-12-28T14:04:45;1.60;;;1.35;;
29092;SDS011;16167;48.768;14.984;2023-12-28T14:07:14;5.47;;;2.03;;
29092;SDS011;16167;48.768;14.984;2023-12-28T14:09:42;3.70;;;2.42;;
29092;SDS011;16167;48.768;14.984;2023-12-28T14:12:10;5.15;;;2.58;;
29092;SDS011;16167;48.768;14.984;2023-12-28T14:14:39;7.97;;;3.13;;
29092;SDS011;16167;48.768;14.984;2023-12-28T14:17:07;4.97;;;2.75;;
29092;SDS011;16167;48.768;14.984;2023-12-28T14:19:36;5.00;;;2.55;;
29092;SDS011;16167;48.768;14.984;2023-12-28T14:22:06;3.33;;;2.00;;
29092;SDS011;16167;48.768;14.984;2023-12-28T14:24:35;2.88;;;2.08;;
29092;SDS011;16167;48.768;14.984;2023-12-28T14:27:04;3.75;;;2.45;;
29092;SDS011;16167;48.768;14.984;2023-12-28T14:29:34;4.90;;;2.50;;
29092;SDS011;16167;48.768;14.984;2023-12-28T14:32:03;12.57;;;3.13;;
29092;SDS011;16167;48.768;14.984;2023-12-28T14:34:32;3.05;;;2.10;;
29092;SDS011;16167;48.768;14.984;2023-12-28T14:37:02;6.85;;;3.10;;
29092;SDS011;16167;48.768;14.984;2023-12-28T14:39:32;3.25;;;2.70;;
29092;SDS011;16167;48.768;14.984;2023-12-28T14:42:01;3.63;;;2.50;;
29092;SDS011;16167;48.768;14.984;2023-12-28T14:44:30;5.15;;;2.92;;
29092;SDS011;16167;48.768;14.984;2023-12-28T14:46:58;4.90;;;2.80;;
29092;SDS011;16167;48.768;14.984;2023-12-28T14:49:27;4.70;;;2.60;;
29092;SDS011;16167;48.768;14.984;2023-12-28T14:51:55;2.22;;;1.70;;
29092;SDS011;16167;48.768;14.984;2023-12-28T14:54:24;3.67;;;2.47;;
29092;SDS011;16167;48.768;14.984;2023-12-28T14:56:54;4.70;;;3.22;;
29092;SDS011;16167;48.768;14.984;2023-12-28T14:59:22;4.10;;;2.88;;
29092;SDS011;16167;48.768;14.984;2023-12-28T15:01:51;4.67;;;3.10;;
29092;SDS011;16167;48.768;14.984;2023-12-28T15:04:19;4.20;;;2.70;;
29092;SDS011;16167;48.768;14.984;2023-12-28T15:06:52;4.40;;;2.63;;
29092;SDS011;16167;48.768;14.984;2023-12-28T15:09:21;4.05;;;2.47;;
29092;SDS011;16167;48.768;14.984;2023-12-28T15:11:49;4.03;;;2.20;;
29092;SDS011;16167;48.768;14.984;2023-12-28T15:14:19;3.50;;;1.95;;
29092;SDS011;16167;48.768;14.984;2023-12-28T15:16:48;6.97;;;4.28;;
29092;SDS011;16167;48.768;14.984;2023-12-28T15:19:17;8.75;;;4.28;;
29092;SDS011;16167;48.768;14.984;2023-12-28T15:21:46;8.38;;;4.38;;